sensor_id;sensor_type;location;lat;lon;timestamp;pressure;altitude;pressure_sealevel;temperature
77599;BMP280;66758;52.078;5.070;2023-01-15T00:01:00;99870.28;;;7.56
77599;BMP280;66758;52.078;5.070;2023-01-15T00:03:53;99875.91;;;7.48
77599;BMP280;66758;52.078;5.070;2023-01-15T00:06:45;99884.88;;;7.48
77599;BMP280;66758;52.078;5.070;2023-01-15T00:09:35;99884.09;;;7.48
77599;BMP280;66758;52.078;5.070;2023-01-15T00:12:26;99872.69;;;7.42
77599;BMP280;66758;52.078;5.070;2023-01-15T00:15:18;99874.06;;;7.52
77599;BMP280;66758;52.078;5.070;2023-01-15T00:18:09;99873.47;;;7.43
77599;BMP280;66758;52.078;5.070;2023-01-15T00:21:00;99868.34;;;7.57
77599;BMP280;66758;52.078;5.070;2023-01-15T00:23:52;99872.75;;;7.46
77599;BMP280;66758;52.078;5.070;2023-01-15T00:27:02;99875.91;;;7.48
77599;BMP280;66758;52.078;5.070;2023-01-15T00:30:14;99867.75;;;7.48
77599;BMP280;66758;52.078;5.070;2023-01-15T00:33:04;99867.84;;;7.51
77599;BMP280;66758;52.078;5.070;2023-01-15T00:35:54;99861.78;;;7.42
77599;BMP280;66758;52.078;5.070;2023-01-15T00:38:46;99859.94;;;7.31
77599;BMP280;66758;52.078;5.070;2023-01-15T00:41:36;99858.78;;;7.16
77599;BMP280;66758;52.078;5.070;2023-01-15T00:44:27;99863.28;;;7.08
77599;BMP280;66758;52.078;5.070;2023-01-15T00:47:18;99865.22;;;7.08
77599;BMP280;66758;52.078;5.070;2023-01-15T00:50:11;99855.88;;;7.09
77599;BMP280;66758;52.078;5.070;2023-01-15T00:53:01;99865.28;;;7.11
77599;BMP280;66758;52.078;5.070;2023-01-15T00:55:51;99870.94;;;7.18
77599;BMP280;66758;52.078;5.070;2023-01-15T00:58:42;99875.25;;;7.19
77599;BMP280;66758;52.078;5.070;2023-01-15T01:01:33;99858.44;;;7.17
77599;BMP280;66758;52.078;5.070;2023-01-15T01:04:24;99868.72;;;7.08
77599;BMP280;66758;52.078;5.070;2023-01-15T01:07:15;99870.22;;;7.06
77599;BMP280;66758;52.078;5.070;2023-01-15T01:10:08;99875.22;;;7.04
77599;BMP280;66758;52.078;5.070;2023-01-15T01:12:58;99871.94;;;6.98
77599;BMP280;66758;52.078;5.070;2023-01-15T01:15:49;99873.06;;;6.97
77599;BMP280;66758;52.078;5.070;2023-01-15T01:18:39;99874.66;;;6.98
77599;BMP280;66758;52.078;5.070;2023-01-15T01:21:31;99881.88;;;6.91
77599;BMP280;66758;52.078;5.070;2023-01-15T01:24:22;99877.00;;;6.84
77599;BMP280;66758;52.078;5.070;2023-01-15T01:27:13;99868.50;;;6.85
77599;BMP280;66758;52.078;5.070;2023-01-15T01:30:06;99870.41;;;6.85
77599;BMP280;66758;52.078;5.070;2023-01-15T01:32:56;99873.06;;;6.81
77599;BMP280;66758;52.078;5.070;2023-01-15T01:35:48;99882.44;;;6.84
77599;BMP280;66758;52.078;5.070;2023-01-15T01:38:40;99869.63;;;6.84
77599;BMP280;66758;52.078;5.070;2023-01-15T01:41:31;99885.44;;;6.79
77599;BMP280;66758;52.078;5.070;2023-01-15T01:47:25;99894.84;;;6.81
77599;BMP280;66758;52.078;5.070;2023-01-15T01:50:17;99889.41;;;6.81
77599;BMP280;66758;52.078;5.070;2023-01-15T01:53:11;99890.78;;;6.75
77599;BMP280;66758;52.078;5.070;2023-01-15T01:56:07;99886.13;;;6.76
77599;BMP280;66758;52.078;5.070;2023-01-15T01:58:58;99881.47;;;6.76
77599;BMP280;66758;52.078;5.070;2023-01-15T02:01:50;99888.22;;;6.67
77599;BMP280;66758;52.078;5.070;2023-01-15T02:04:42;99878.03;;;6.64
77599;BMP280;66758;52.078;5.070;2023-01-15T02:07:34;99881.97;;;6.66
77599;BMP280;66758;52.078;5.070;2023-01-15T02:10:25;99888.28;;;6.70
77599;BMP280;66758;52.078;5.070;2023-01-15T02:13:26;99869.34;;;6.74
77599;BMP280;66758;52.078;5.070;2023-01-15T02:16:24;99876.66;;;6.58
77599;BMP280;66758;52.078;5.070;2023-01-15T02:19:55;99864.84;;;6.66
77599;BMP280;66758;52.078;5.070;2023-01-15T02:23:22;99857.03;;;6.64
77599;BMP280;66758;52.078;5.070;2023-01-15T02:26:46;99865.56;;;6.63
77599;BMP280;66758;52.078;5.070;2023-01-15T02:29:50;99873.03;;;6.66
77599;BMP280;66758;52.078;5.070;2023-01-15T02:32:51;99857.28;;;6.59
77599;BMP280;66758;52.078;5.070;2023-01-15T02:35:56;99874.31;;;6.56
77599;BMP280;66758;52.078;5.070;2023-01-15T02:38:52;99877.13;;;6.60
77599;BMP280;66758;52.078;5.070;2023-01-15T02:41:48;99866.16;;;6.56
77599;BMP280;66758;52.078;5.070;2023-01-15T02:44:46;99860.78;;;6.60
77599;BMP280;66758;52.078;5.070;2023-01-15T02:47:40;99876.81;;;6.49
77599;BMP280;66758;52.078;5.070;2023-01-15T02:50:36;99870.13;;;6.46
77599;BMP280;66758;52.078;5.070;2023-01-15T02:53:30;99871.19;;;6.42
77599;BMP280;66758;52.078;5.070;2023-01-15T02:56:24;99861.78;;;6.39
77599;BMP280;66758;52.078;5.070;2023-01-15T02:59:23;99859.53;;;6.41
77599;BMP280;66758;52.078;5.070;2023-01-15T03:02:20;99851.38;;;6.41
77599;BMP280;66758;52.078;5.070;2023-01-15T03:08:07;99840.03;;;6.39
77599;BMP280;66758;52.078;5.070;2023-01-15T03:11:03;99849.50;;;6.45
77599;BMP280;66758;52.078;5.070;2023-01-15T03:14:15;99857.31;;;6.47
77599;BMP280;66758;52.078;5.070;2023-01-15T03:17:15;99848.72;;;6.45
77599;BMP280;66758;52.078;5.070;2023-01-15T03:20:16;99858.03;;;6.44
77599;BMP280;66758;52.078;5.070;2023-01-15T03:23:09;99851.81;;;6.43
77599;BMP280;66758;52.078;5.070;2023-01-15T03:26:00;99850.22;;;6.42
77599;BMP280;66758;52.078;5.070;2023-01-15T03:28:51;99844.69;;;6.39
77599;BMP280;66758;52.078;5.070;2023-01-15T03:31:42;99851.16;;;6.34
77599;BMP280;66758;52.078;5.070;2023-01-15T03:34:42;99843.66;;;6.31
77599;BMP280;66758;52.078;5.070;2023-01-15T03:37:33;99831.81;;;6.24
77599;BMP280;66758;52.078;5.070;2023-01-15T03:40:24;99853.91;;;6.22
77599;BMP280;66758;52.078;5.070;2023-01-15T03:43:16;99849.66;;;6.37
77599;BMP280;66758;52.078;5.070;2023-01-15T03:49:39;99838.84;;;6.25
77599;BMP280;66758;52.078;5.070;2023-01-15T04:01:47;99836.03;;;6.09
77599;BMP280;66758;52.078;5.070;2023-01-15T04:04:39;99838.53;;;6.14
77599;BMP280;66758;52.078;5.070;2023-01-15T04:07:30;99833.88;;;6.14
77599;BMP280;66758;52.078;5.070;2023-01-15T04:10:21;99836.59;;;6.14
77599;BMP280;66758;52.078;5.070;2023-01-15T04:13:11;99843.63;;;6.03
77599;BMP280;66758;52.078;5.070;2023-01-15T04:16:02;99838.63;;;6.18
77599;BMP280;66758;52.078;5.070;2023-01-15T04:18:53;99840.91;;;6.16
77599;BMP280;66758;52.078;5.070;2023-01-15T04:21:44;99838.63;;;6.18
77599;BMP280;66758;52.078;5.070;2023-01-15T04:24:34;99833.97;;;6.18
77599;BMP280;66758;52.078;5.070;2023-01-15T04:27:25;99838.97;;;6.16
77599;BMP280;66758;52.078;5.070;2023-01-15T04:30:17;99832.63;;;6.12
77599;BMP280;66758;52.078;5.070;2023-01-15T04:33:09;99832.38;;;6.17
77599;BMP280;66758;52.078;5.070;2023-01-15T04:36:00;99832.75;;;6.16
77599;BMP280;66758;52.078;5.070;2023-01-15T04:38:52;99841.25;;;6.14
77599;BMP280;66758;52.078;5.070;2023-01-15T04:41:44;99837.81;;;6.29
77599;BMP280;66758;52.078;5.070;2023-01-15T04:44:53;99838.94;;;6.28
77599;BMP280;66758;52.078;5.070;2023-01-15T04:47:44;99836.13;;;6.25
77599;BMP280;66758;52.078;5.070;2023-01-15T04:50:35;99819.56;;;6.30
77599;BMP280;66758;52.078;5.070;2023-01-15T04:53:27;99843.72;;;6.19
77599;BMP280;66758;52.078;5.070;2023-01-15T04:56:18;99837.81;;;6.29
77599;BMP280;66758;52.078;5.070;2023-01-15T04:59:09;99841.22;;;6.26
77599;BMP280;66758;52.078;5.070;2023-01-15T05:02:00;99844.38;;;6.28
77599;BMP280;66758;52.078;5.070;2023-01-15T05:04:50;99833.06;;;6.26
77599;BMP280;66758;52.078;5.070;2023-01-15T05:07:41;99838.22;;;6.31
77599;BMP280;66758;52.078;5.070;2023-01-15T05:10:32;99842.00;;;6.27
77599;BMP280;66758;52.078;5.070;2023-01-15T05:13:23;99836.16;;;6.12
77599;BMP280;66758;52.078;5.070;2023-01-15T05:16:22;99834.69;;;6.15
77599;BMP280;66758;52.078;5.070;2023-01-15T05:19:16;99835.25;;;6.08
77599;BMP280;66758;52.078;5.070;2023-01-15T05:22:07;99835.47;;;6.16
77599;BMP280;66758;52.078;5.070;2023-01-15T05:24:59;99825.47;;;6.20
77599;BMP280;66758;52.078;5.070;2023-01-15T05:27:50;99835.88;;;6.30
77599;BMP280;66758;52.078;5.070;2023-01-15T05:30:40;99833.88;;;6.14
77599;BMP280;66758;52.078;5.070;2023-01-15T05:33:32;99840.78;;;6.12
77599;BMP280;66758;52.078;5.070;2023-01-15T05:36:25;99830.59;;;6.09
77599;BMP280;66758;52.078;5.070;2023-01-15T05:39:17;99837.81;;;6.17
77599;BMP280;66758;52.078;5.070;2023-01-15T05:42:08;99822.09;;;6.10
77599;BMP280;66758;52.078;5.070;2023-01-15T05:44:58;99821.72;;;6.24
77599;BMP280;66758;52.078;5.070;2023-01-15T05:47:49;99827.63;;;6.26
77599;BMP280;66758;52.078;5.070;2023-01-15T05:50:42;99829.44;;;6.22
77599;BMP280;66758;52.078;5.070;2023-01-15T05:53:34;99833.69;;;6.63
77599;BMP280;66758;52.078;5.070;2023-01-15T05:56:25;99825.00;;;6.30
77599;BMP280;66758;52.078;5.070;2023-01-15T05:59:18;99838.00;;;6.36
77599;BMP280;66758;52.078;5.070;2023-01-15T06:02:09;99821.53;;;6.45
77599;BMP280;66758;52.078;5.070;2023-01-15T06:05:00;99814.88;;;6.42
77599;BMP280;66758;52.078;5.070;2023-01-15T06:07:51;99848.63;;;6.41
77599;BMP280;66758;52.078;5.070;2023-01-15T06:10:45;99832.84;;;6.19
77599;BMP280;66758;52.078;5.070;2023-01-15T06:13:37;99845.56;;;6.15
77599;BMP280;66758;52.078;5.070;2023-01-15T06:16:29;99845.63;;;6.19
77599;BMP280;66758;52.078;5.070;2023-01-15T06:19:20;99830.03;;;6.03
77599;BMP280;66758;52.078;5.070;2023-01-15T06:22:11;99847.28;;;5.95
77599;BMP280;66758;52.078;5.070;2023-01-15T06:25:02;99847.84;;;5.89
77599;BMP280;66758;52.078;5.070;2023-01-15T06:27:52;99849.00;;;5.75
77599;BMP280;66758;52.078;5.070;2023-01-15T06:30:43;99860.44;;;5.69
77599;BMP280;66758;52.078;5.070;2023-01-15T06:33:34;99866.31;;;5.83
77599;BMP280;66758;52.078;5.070;2023-01-15T06:36:25;99873.56;;;5.91
77599;BMP280;66758;52.078;5.070;2023-01-15T06:39:16;99867.94;;;5.72
77599;BMP280;66758;52.078;5.070;2023-01-15T06:42:08;99860.56;;;5.72
77599;BMP280;66758;52.078;5.070;2023-01-15T06:45:17;99861.44;;;5.76
77599;BMP280;66758;52.078;5.070;2023-01-15T06:48:43;99858.06;;;5.79
77599;BMP280;66758;52.078;5.070;2023-01-15T06:51:34;99848.31;;;5.91
77599;BMP280;66758;52.078;5.070;2023-01-15T06:54:25;99850.34;;;5.94
77599;BMP280;66758;52.078;5.070;2023-01-15T06:57:16;99847.06;;;5.76
77599;BMP280;66758;52.078;5.070;2023-01-15T07:00:09;99844.00;;;5.90
77599;BMP280;66758;52.078;5.070;2023-01-15T07:03:00;99849.00;;;5.75
77599;BMP280;66758;52.078;5.070;2023-01-15T07:05:51;99849.34;;;5.62
77599;BMP280;66758;52.078;5.070;2023-01-15T07:08:41;99849.00;;;5.75
77599;BMP280;66758;52.078;5.070;2023-01-15T07:11:32;99860.56;;;5.60
77599;BMP280;66758;52.078;5.070;2023-01-15T07:14:25;99854.66;;;5.58
77599;BMP280;66758;52.078;5.070;2023-01-15T07:17:17;99858.75;;;5.52
77599;BMP280;66758;52.078;5.070;2023-01-15T07:20:09;99852.06;;;5.37
77599;BMP280;66758;52.078;5.070;2023-01-15T07:22:59;99847.63;;;5.33
77599;BMP280;66758;52.078;5.070;2023-01-15T07:25:54;99843.47;;;5.35
77599;BMP280;66758;52.078;5.070;2023-01-15T07:28:46;99850.34;;;5.21
77599;BMP280;66758;52.078;5.070;2023-01-15T07:31:36;99854.31;;;5.23
77599;BMP280;66758;52.078;5.070;2023-01-15T07:34:27;99845.63;;;5.18
77599;BMP280;66758;52.078;5.070;2023-01-15T07:37:18;99846.63;;;5.13
77599;BMP280;66758;52.078;5.070;2023-01-15T07:40:09;99846.50;;;5.22
77599;BMP280;66758;52.078;5.070;2023-01-15T07:43:00;99841.53;;;5.24
77599;BMP280;66758;52.078;5.070;2023-01-15T07:46:10;99829.53;;;5.25
77599;BMP280;66758;52.078;5.070;2023-01-15T07:49:19;99825.13;;;5.32
77599;BMP280;66758;52.078;5.070;2023-01-15T07:52:28;99824.13;;;5.25
77599;BMP280;66758;52.078;5.070;2023-01-15T07:55:18;99828.53;;;5.41
77599;BMP280;66758;52.078;5.070;2023-01-15T07:58:09;99832.13;;;5.33
77599;BMP280;66758;52.078;5.070;2023-01-15T08:01:00;99835.44;;;5.39
77599;BMP280;66758;52.078;5.070;2023-01-15T08:03:50;99835.44;;;5.39
77599;BMP280;66758;52.078;5.070;2023-01-15T08:06:40;99841.75;;;5.31
77599;BMP280;66758;52.078;5.070;2023-01-15T08:09:31;99843.34;;;5.32
77599;BMP280;66758;52.078;5.070;2023-01-15T08:12:22;99850.13;;;5.26
77599;BMP280;66758;52.078;5.070;2023-01-15T08:15:36;99845.94;;;5.28
77599;BMP280;66758;52.078;5.070;2023-01-15T08:18:27;99851.81;;;5.30
77599;BMP280;66758;52.078;5.070;2023-01-15T08:21:18;99847.50;;;5.29
77599;BMP280;66758;52.078;5.070;2023-01-15T08:24:09;99848.69;;;5.40
77599;BMP280;66758;52.078;5.070;2023-01-15T08:27:00;99852.75;;;5.47
77599;BMP280;66758;52.078;5.070;2023-01-15T08:29:52;99844.50;;;5.55
77599;BMP280;66758;52.078;5.070;2023-01-15T08:32:42;99848.56;;;5.73
77599;BMP280;66758;52.078;5.070;2023-01-15T08:35:33;99838.81;;;5.85
77599;BMP280;66758;52.078;5.070;2023-01-15T08:38:24;99841.06;;;5.95
77599;BMP280;66758;52.078;5.070;2023-01-15T08:41:15;99835.72;;;5.98
77599;BMP280;66758;52.078;5.070;2023-01-15T08:44:05;99833.81;;;5.99
77599;BMP280;66758;52.078;5.070;2023-01-15T08:46:55;99829.28;;;6.03
77599;BMP280;66758;52.078;5.070;2023-01-15T08:49:48;99829.94;;;6.12
77599;BMP280;66758;52.078;5.070;2023-01-15T08:52:38;99823.69;;;6.11
77599;BMP280;66758;52.078;5.070;2023-01-15T08:55:29;99837.63;;;6.10
77599;BMP280;66758;52.078;5.070;2023-01-15T08:58:20;99838.06;;;6.12
77599;BMP280;66758;52.078;5.070;2023-01-15T09:01:11;99846.66;;;6.26
77599;BMP280;66758;52.078;5.070;2023-01-15T09:04:05;99839.13;;;6.35
77599;BMP280;66758;52.078;5.070;2023-01-15T09:06:56;99838.69;;;6.33
77599;BMP280;66758;52.078;5.070;2023-01-15T09:09:47;99836.41;;;6.35
77599;BMP280;66758;52.078;5.070;2023-01-15T09:12:39;99831.19;;;6.42
77599;BMP280;66758;52.078;5.070;2023-01-15T09:15:32;99842.69;;;6.52
77599;BMP280;66758;52.078;5.070;2023-01-15T09:18:23;99840.88;;;6.56
77599;BMP280;66758;52.078;5.070;2023-01-15T09:21:13;99840.91;;;6.71
77599;BMP280;66758;52.078;5.070;2023-01-15T09:24:04;99836.84;;;6.65
77599;BMP280;66758;52.078;5.070;2023-01-15T09:26:55;99841.13;;;6.50
77599;BMP280;66758;52.078;5.070;2023-01-15T09:29:38;99858.22;;;6.51
77599;BMP280;66758;52.078;5.070;2023-01-15T09:32:31;99823.66;;;6.52
77599;BMP280;66758;52.078;5.070;2023-01-15T09:35:45;99850.63;;;6.57
77599;BMP280;66758;52.078;5.070;2023-01-15T09:38:40;99845.22;;;6.44
77599;BMP280;66758;52.078;5.070;2023-01-15T09:45:25;99845.66;;;6.46
77599;BMP280;66758;52.078;5.070;2023-01-15T09:48:25;99850.19;;;6.55
77599;BMP280;66758;52.078;5.070;2023-01-15T09:51:33;99849.03;;;6.56
77599;BMP280;66758;52.078;5.070;2023-01-15T09:54:39;99846.25;;;6.68
77599;BMP280;66758;52.078;5.070;2023-01-15T09:57:35;99836.16;;;6.68
77599;BMP280;66758;52.078;5.070;2023-01-15T10:00:35;99831.00;;;6.79
77599;BMP280;66758;52.078;5.070;2023-01-15T10:03:51;99834.19;;;7.12
77599;BMP280;66758;52.078;5.070;2023-01-15T10:06:59;99837.25;;;7.27
77599;BMP280;66758;52.078;5.070;2023-01-15T10:10:09;99839.91;;;7.39
77599;BMP280;66758;52.078;5.070;2023-01-15T10:13:07;99828.69;;;7.59
77599;BMP280;66758;52.078;5.070;2023-01-15T10:16:03;99833.84;;;7.80
77599;BMP280;66758;52.078;5.070;2023-01-15T10:19:00;99846.16;;;8.28
77599;BMP280;66758;52.078;5.070;2023-01-15T10:22:00;99854.41;;;7.43
77599;BMP280;66758;52.078;5.070;2023-01-15T10:24:57;99853.16;;;7.25
77599;BMP280;66758;52.078;5.070;2023-01-15T10:27:50;99878.13;;;7.93
77599;BMP280;66758;52.078;5.070;2023-01-15T10:30:46;99869.19;;;8.12
77599;BMP280;66758;52.078;5.070;2023-01-15T10:47:11;99882.25;;;7.36
77599;BMP280;66758;52.078;5.070;2023-01-15T10:50:25;99872.53;;;7.86
77599;BMP280;66758;52.078;5.070;2023-01-15T10:59:59;99890.69;;;7.63
77599;BMP280;66758;52.078;5.070;2023-01-15T11:02:59;99879.53;;;7.52
77599;BMP280;66758;52.078;5.070;2023-01-15T11:06:20;99877.78;;;7.28
77599;BMP280;66758;52.078;5.070;2023-01-15T11:09:27;99874.94;;;7.25
77599;BMP280;66758;52.078;5.070;2023-01-15T11:12:25;99871.00;;;7.06
77599;BMP280;66758;52.078;5.070;2023-01-15T11:15:23;99870.56;;;7.04
77599;BMP280;66758;52.078;5.070;2023-01-15T11:18:41;99879.75;;;7.00
77599;BMP280;66758;52.078;5.070;2023-01-15T11:21:52;99864.50;;;6.95
77599;BMP280;66758;52.078;5.070;2023-01-15T11:28:05;99885.09;;;6.96
77599;BMP280;66758;52.078;5.070;2023-01-15T11:30:57;99888.44;;;6.90
77599;BMP280;66758;52.078;5.070;2023-01-15T11:34:02;99884.25;;;6.92
77599;BMP280;66758;52.078;5.070;2023-01-15T11:37:02;99883.56;;;6.95
77599;BMP280;66758;52.078;5.070;2023-01-15T11:39:58;99874.06;;;7.05
77599;BMP280;66758;52.078;5.070;2023-01-15T11:42:58;99863.00;;;7.13
77599;BMP280;66758;52.078;5.070;2023-01-15T11:46:30;99866.53;;;7.14
77599;BMP280;66758;52.078;5.070;2023-01-15T11:49:52;99864.41;;;7.23
77599;BMP280;66758;52.078;5.070;2023-01-15T11:53:08;99872.69;;;7.27
77599;BMP280;66758;52.078;5.070;2023-01-15T11:56:05;99862.03;;;7.21
77599;BMP280;66758;52.078;5.070;2023-01-15T11:59:03;99858.50;;;7.21
77599;BMP280;66758;52.078;5.070;2023-01-15T12:02:15;99869.25;;;7.14
77599;BMP280;66758;52.078;5.070;2023-01-15T12:05:18;99865.19;;;6.92
77599;BMP280;66758;52.078;5.070;2023-01-15T12:08:31;99864.81;;;6.78
77599;BMP280;66758;52.078;5.070;2023-01-15T12:21:05;99873.91;;;6.02
77599;BMP280;66758;52.078;5.070;2023-01-15T12:24:38;99891.78;;;5.91
77599;BMP280;66758;52.078;5.070;2023-01-15T12:27:58;99883.19;;;6.01
77599;BMP280;66758;52.078;5.070;2023-01-15T12:37:11;99895.84;;;6.09
77599;BMP280;66758;52.078;5.070;2023-01-15T12:43:15;99870.25;;;6.10
77599;BMP280;66758;52.078;5.070;2023-01-15T12:46:29;99875.53;;;6.19
77599;BMP280;66758;52.078;5.070;2023-01-15T12:49:42;99872.41;;;6.17
77599;BMP280;66758;52.078;5.070;2023-01-15T12:52:40;99867.28;;;6.27
77599;BMP280;66758;52.078;5.070;2023-01-15T12:55:37;99877.00;;;6.28
77599;BMP280;66758;52.078;5.070;2023-01-15T13:04:56;99870.19;;;6.62
77599;BMP280;66758;52.078;5.070;2023-01-15T13:08:36;99868.09;;;6.71
77599;BMP280;66758;52.078;5.070;2023-01-15T13:10:59;99872.03;;;6.58
77599;BMP280;66758;52.078;5.070;2023-01-15T13:13:51;99875.53;;;6.59
77599;BMP280;66758;52.078;5.070;2023-01-15T13:30:20;99882.25;;;6.77
77599;BMP280;66758;52.078;5.070;2023-01-15T13:33:36;99885.00;;;6.77
77599;BMP280;66758;52.078;5.070;2023-01-15T13:36:45;99884.19;;;6.76
77599;BMP280;66758;52.078;5.070;2023-01-15T13:39:42;99895.31;;;6.71
77599;BMP280;66758;52.078;5.070;2023-01-15T13:42:35;99890.44;;;6.77
77599;BMP280;66758;52.078;5.070;2023-01-15T13:45:39;99898.50;;;6.73
77599;BMP280;66758;52.078;5.070;2023-01-15T13:48:33;99892.25;;;6.73
77599;BMP280;66758;52.078;5.070;2023-01-15T13:51:33;99902.47;;;6.76
77599;BMP280;66758;52.078;5.070;2023-01-15T13:54:35;99903.25;;;6.76
77599;BMP280;66758;52.078;5.070;2023-01-15T13:57:36;99902.34;;;6.72
77599;BMP280;66758;52.078;5.070;2023-01-15T14:00:35;99907.31;;;6.82
77599;BMP280;66758;52.078;5.070;2023-01-15T14:03:31;99904.16;;;6.80
77599;BMP280;66758;52.078;5.070;2023-01-15T14:06:22;99906.53;;;6.82
77599;BMP280;66758;52.078;5.070;2023-01-15T14:09:27;99916.06;;;6.76
77599;BMP280;66758;52.078;5.070;2023-01-15T14:32:49;99934.72;;;6.62
77599;BMP280;66758;52.078;5.070;2023-01-15T14:35:46;99948.78;;;6.64
77599;BMP280;66758;52.078;5.070;2023-01-15T14:38:45;99939.69;;;6.60
77599;BMP280;66758;52.078;5.070;2023-01-15T14:41:39;99949.44;;;6.61
77599;BMP280;66758;52.078;5.070;2023-01-15T14:51:48;99956.28;;;6.55
77599;BMP280;66758;52.078;5.070;2023-01-15T14:54:42;99959.19;;;6.62
77599;BMP280;66758;52.078;5.070;2023-01-15T14:57:35;99964.00;;;6.53
77599;BMP280;66758;52.078;5.070;2023-01-15T15:00:33;99955.53;;;6.82
77599;BMP280;66758;52.078;5.070;2023-01-15T15:03:36;99960.34;;;6.61
77599;BMP280;66758;52.078;5.070;2023-01-15T15:06:29;99965.34;;;6.46
77599;BMP280;66758;52.078;5.070;2023-01-15T15:09:46;99958.59;;;6.28
77599;BMP280;66758;52.078;5.070;2023-01-15T15:15:49;99951.56;;;6.27
77599;BMP280;66758;52.078;5.070;2023-01-15T15:18:46;99959.28;;;6.25
77599;BMP280;66758;52.078;5.070;2023-01-15T15:21:40;99948.63;;;6.20
77599;BMP280;66758;52.078;5.070;2023-01-15T15:24:35;99957.81;;;6.28
77599;BMP280;66758;52.078;5.070;2023-01-15T15:27:26;99952.00;;;6.41
77599;BMP280;66758;52.078;5.070;2023-01-15T15:30:16;99953.16;;;6.28
77599;BMP280;66758;52.078;5.070;2023-01-15T15:33:16;99954.50;;;6.22
77599;BMP280;66758;52.078;5.070;2023-01-15T15:36:07;99977.88;;;6.23
77599;BMP280;66758;52.078;5.070;2023-01-15T15:39:01;99977.19;;;6.26
77599;BMP280;66758;52.078;5.070;2023-01-15T15:41:55;99978.00;;;6.14
77599;BMP280;66758;52.078;5.070;2023-01-15T15:45:15;99994.31;;;6.02
77599;BMP280;66758;52.078;5.070;2023-01-15T15:48:32;100002.81;;;6.01
77599;BMP280;66758;52.078;5.070;2023-01-15T15:51:51;100011.06;;;6.29
77599;BMP280;66758;52.078;5.070;2023-01-15T15:54:42;100005.06;;;6.23
77599;BMP280;66758;52.078;5.070;2023-01-15T15:57:33;100005.97;;;6.15
77599;BMP280;66758;52.078;5.070;2023-01-15T16:00:30;100001.41;;;5.95
77599;BMP280;66758;52.078;5.070;2023-01-15T16:03:24;100008.66;;;5.91
77599;BMP280;66758;52.078;5.070;2023-01-15T16:06:20;100012.63;;;5.93
77599;BMP280;66758;52.078;5.070;2023-01-15T16:09:11;100002.34;;;5.87
77599;BMP280;66758;52.078;5.070;2023-01-15T16:12:03;100003.47;;;5.86
77599;BMP280;66758;52.078;5.070;2023-01-15T16:14:57;100002.44;;;5.90
77599;BMP280;66758;52.078;5.070;2023-01-15T16:17:48;100006.06;;;5.94
77599;BMP280;66758;52.078;5.070;2023-01-15T16:20:40;100018.66;;;6.11
77599;BMP280;66758;52.078;5.070;2023-01-15T16:23:30;100009.25;;;6.08
77599;BMP280;66758;52.078;5.070;2023-01-15T16:26:51;100014.94;;;6.16
77599;BMP280;66758;52.078;5.070;2023-01-15T16:29:39;100015.81;;;6.20
77599;BMP280;66758;52.078;5.070;2023-01-15T16:32:30;100014.56;;;6.17
77599;BMP280;66758;52.078;5.070;2023-01-15T16:35:23;100014.13;;;6.15
77599;BMP280;66758;52.078;5.070;2023-01-15T16:38:18;100017.97;;;6.14
77599;BMP280;66758;52.078;5.070;2023-01-15T16:41:19;100014.69;;;6.08
77599;BMP280;66758;52.078;5.070;2023-01-15T16:47:33;100025.00;;;6.03
77599;BMP280;66758;52.078;5.070;2023-01-15T16:50:29;100008.13;;;5.97
77599;BMP280;66758;52.078;5.070;2023-01-15T17:02:17;100011.72;;;5.89
77599;BMP280;66758;52.078;5.070;2023-01-15T17:05:21;100023.63;;;5.85
77599;BMP280;66758;52.078;5.070;2023-01-15T17:08:18;100025.19;;;5.73
77599;BMP280;66758;52.078;5.070;2023-01-15T17:11:36;100025.59;;;5.63
77599;BMP280;66758;52.078;5.070;2023-01-15T17:14:28;100027.06;;;5.61
77599;BMP280;66758;52.078;5.070;2023-01-15T17:20:14;100019.63;;;5.70
77599;BMP280;66758;52.078;5.070;2023-01-15T17:23:10;100014.31;;;5.73
77599;BMP280;66758;52.078;5.070;2023-01-15T17:26:03;100017.81;;;5.74
77599;BMP280;66758;52.078;5.070;2023-01-15T17:28:53;100025.84;;;5.70
77599;BMP280;66758;52.078;5.070;2023-01-15T17:31:45;100023.34;;;5.65
77599;BMP280;66758;52.078;5.070;2023-01-15T17:34:36;100019.13;;;5.56
77599;BMP280;66758;52.078;5.070;2023-01-15T17:37:27;100022.31;;;5.58
77599;BMP280;66758;52.078;5.070;2023-01-15T17:40:18;100029.31;;;5.59
77599;BMP280;66758;52.078;5.070;2023-01-15T17:43:13;100020.38;;;5.58
77599;BMP280;66758;52.078;5.070;2023-01-15T17:46:04;100028.19;;;5.60
77599;BMP280;66758;52.078;5.070;2023-01-15T17:48:55;100011.44;;;5.58
77599;BMP280;66758;52.078;5.070;2023-01-15T17:51:46;100017.63;;;5.46
77599;BMP280;66758;52.078;5.070;2023-01-15T17:54:37;100012.84;;;5.43
77599;BMP280;66758;52.078;5.070;2023-01-15T17:57:46;100015.19;;;5.32
77599;BMP280;66758;52.078;5.070;2023-01-15T18:00:55;100017.69;;;5.25
77599;BMP280;66758;52.078;5.070;2023-01-15T18:04:07;100024.22;;;5.24
77599;BMP280;66758;52.078;5.070;2023-01-15T18:07:19;100011.78;;;5.23
77599;BMP280;66758;52.078;5.070;2023-01-15T18:10:13;100012.34;;;5.17
77599;BMP280;66758;52.078;5.070;2023-01-15T18:13:07;100016.66;;;5.18
77599;BMP280;66758;52.078;5.070;2023-01-15T18:15:58;100017.31;;;5.27
77599;BMP280;66758;52.078;5.070;2023-01-15T18:18:51;100022.41;;;5.28
77599;BMP280;66758;52.078;5.070;2023-01-15T18:21:42;100007.72;;;5.29
77599;BMP280;66758;52.078;5.070;2023-01-15T18:24:35;100010.75;;;5.28
77599;BMP280;66758;52.078;5.070;2023-01-15T18:27:26;100024.81;;;5.30
77599;BMP280;66758;52.078;5.070;2023-01-15T18:30:19;100011.13;;;5.26
77599;BMP280;66758;52.078;5.070;2023-01-15T18:33:10;100012.00;;;5.18
77599;BMP280;66758;52.078;5.070;2023-01-15T18:36:03;100016.66;;;5.18
77599;BMP280;66758;52.078;5.070;2023-01-15T18:38:56;100020.94;;;5.19
77599;BMP280;66758;52.078;5.070;2023-01-15T18:41:52;100009.41;;;5.22
77599;BMP280;66758;52.078;5.070;2023-01-15T18:44:42;100016.66;;;5.18
77599;BMP280;66758;52.078;5.070;2023-01-15T18:47:53;100002.38;;;5.09
77599;BMP280;66758;52.078;5.070;2023-01-15T18:50:45;100007.19;;;5.03
77599;BMP280;66758;52.078;5.070;2023-01-15T18:53:39;100008.03;;;4.95
77599;BMP280;66758;52.078;5.070;2023-01-15T18:56:31;100011.16;;;4.85
77599;BMP280;66758;52.078;5.070;2023-01-15T18:59:37;100012.34;;;4.75
77599;BMP280;66758;52.078;5.070;2023-01-15T19:02:28;100010.31;;;4.72
77599;BMP280;66758;52.078;5.070;2023-01-15T19:05:19;100005.34;;;4.74
77599;BMP280;66758;52.078;5.070;2023-01-15T19:08:10;100003.16;;;4.67
77599;BMP280;66758;52.078;5.070;2023-01-15T19:10:59;99995.53;;;4.61
77599;BMP280;66758;52.078;5.070;2023-01-15T19:13:50;100006.03;;;4.62
77599;BMP280;66758;52.078;5.070;2023-01-15T19:17:02;100006.13;;;4.54